Time;durP1;ratioP1;P1;durP2;ratioP2;P2;SDS_P1;SDS_P2;PMS_P1;PMS_P2;Temp;Humidity;BMP_temperature;BMP_pressure;BME280_temperature;BME280_humidity;BME280_pressure;Samples;Min_cycle;Max_cycle;Signal;HPM_P1;HPM_P2
2024/01/05 00:00:18;;;;;;;9.60;3.80;;;;;;;3.21;75.93;97828.44;105302;1258;97417;-74
2024/01/05 00:03:06;;;;;;;14.60;4.30;;;;;;;3.22;75.91;97832.23;105366;1257;112624;-76
2024/01/05 00:05:35;;;;;;;10.50;3.80;;;;;;;3.25;75.89;97835.34;105368;1257;97851;-73
2024/01/05 00:08:03;;;;;;;15.00;4.50;;;;;;;3.28;75.84;97832.34;105460;1256;107001;-76
2024/01/05 00:10:31;;;;;;;13.20;4.80;;;;;;;3.31;75.99;97845.34;105392;1255;96586;-73
2024/01/05 00:12:59;;;;;;;14.50;4.60;;;;;;;3.31;76.02;97859.36;105177;1253;96521;-75
2024/01/05 00:15:27;;;;;;;15.30;4.30;;;;;;;3.28;75.65;97875.81;105146;1266;109737;-75
2024/01/05 00:17:55;;;;;;;10.30;3.80;;;;;;;3.20;75.75;97889.08;105442;1257;96572;-75
2024/01/05 00:20:23;;;;;;;6.70;2.60;;;;;;;3.07;75.63;97887.27;105366;1256;106150;-74
2024/01/05 00:22:51;;;;;;;4.00;2.10;;;;;;;2.90;75.52;97894.77;105458;1259;96601;-73
2024/01/05 00:25:21;;;;;;;5.40;2.10;;;;;;;2.78;75.44;97910.73;105417;1255;96623;-76
2024/01/05 00:27:52;;;;;;;4.70;2.10;;;;;;;2.66;75.68;97917.38;105448;1255;108983;-73
2024/01/05 00:30:20;;;;;;;5.80;2.20;;;;;;;2.54;75.68;97926.48;105256;1256;97467;-75
2024/01/05 00:32:48;;;;;;;4.70;1.90;;;;;;;2.46;75.56;97931.83;105626;1266;107699;-74
2024/01/05 00:35:17;;;;;;;6.50;2.40;;;;;;;2.39;76.08;97942.73;105395;1256;96575;-75
2024/01/05 00:37:44;;;;;;;5.10;2.10;;;;;;;2.33;75.66;97949.33;105753;1258;97945;-75
2024/01/05 00:40:12;;;;;;;4.90;2.70;;;;;;;2.30;75.72;97952.85;105405;1255;110114;-74
2024/01/05 00:42:40;;;;;;;6.30;2.50;;;;;;;2.27;75.67;97958.98;105431;1253;96601;-74
2024/01/05 00:45:08;;;;;;;4.80;2.70;;;;;;;2.24;75.70;97967.67;105183;1257;107344;-74
2024/01/05 00:47:36;;;;;;;5.40;2.40;;;;;;;2.21;75.49;97968.20;105380;1256;96636;-74
2024/01/05 00:50:05;;;;;;;5.10;2.30;;;;;;;2.18;75.98;97971.71;105436;1256;96622;-74
2024/01/05 00:52:33;;;;;;;4.80;2.40;;;;;;;2.16;76.14;97975.67;105349;1257;109637;-73
2024/01/05 00:55:00;;;;;;;5.90;2.50;;;;;;;2.13;75.95;97982.98;105405;1255;96550;-76
2024/01/05 00:57:29;;;;;;;8.80;3.40;;;;;;;2.11;75.92;97982.59;105132;1255;107336;-74
2024/01/05 00:59:57;;;;;;;7.60;2.90;;;;;;;2.09;75.77;97995.44;105383;1256;97557;-75
2024/01/05 01:02:25;;;;;;;8.00;3.10;;;;;;;2.05;75.96;97998.10;105620;1253;96569;-73
2024/01/05 01:04:53;;;;;;;5.30;2.90;;;;;;;2.01;76.01;98013.21;105254;1258;110013;-73
2024/01/05 01:07:20;;;;;;;8.10;3.40;;;;;;;1.95;75.88;98018.45;105142;1268;96525;-76
2024/01/05 01:09:48;;;;;;;9.70;4.10;;;;;;;1.89;75.90;98023.30;105351;1258;106194;-74
2024/01/05 01:12:16;;;;;;;8.30;3.50;;;;;;;1.86;76.05;98027.84;105147;1257;97190;-74
2024/01/05 01:14:44;;;;;;;7.90;4.10;;;;;;;1.81;75.80;98026.53;105372;1255;96611;-75
2024/01/05 01:17:12;;;;;;;8.10;4.00;;;;;;;1.75;75.89;98027.88;105273;1258;109566;-74
2024/01/05 01:19:39;;;;;;;7.10;3.90;;;;;;;1.70;75.65;98029.39;105410;1257;96638;-72
2024/01/05 01:22:07;;;;;;;11.50;4.10;;;;;;;1.65;75.78;98038.00;105507;1257;107242;-74
2024/01/05 01:24:35;;;;;;;11.70;4.50;;;;;;;1.61;75.83;98039.96;105443;1256;98157;-74
2024/01/05 01:27:03;;;;;;;8.80;4.90;;;;;;;1.58;75.78;98049.23;105333;1253;96600;-75
2024/01/05 01:29:31;;;;;;;10.10;4.30;;;;;;;1.54;75.91;98054.52;105401;1256;109368;-75
2024/01/05 01:31:59;;;;;;;9.20;4.40;;;;;;;1.52;75.75;98054.26;105623;1255;96602;-73
2024/01/05 01:34:27;;;;;;;9.40;4.40;;;;;;;1.52;75.83;98065.77;105162;1258;106793;-74
2024/01/05 01:36:54;;;;;;;9.50;4.30;;;;;;;1.51;75.90;98070.04;105398;1258;96729;-76
2024/01/05 01:39:22;;;;;;;10.00;4.10;;;;;;;1.49;75.67;98074.15;105325;1258;97548;-74
2024/01/05 01:41:50;;;;;;;10.00;4.30;;;;;;;1.48;75.75;98080.08;105474;1253;109703;-73
2024/01/05 01:44:18;;;;;;;8.70;4.30;;;;;;;1.47;75.88;98080.67;105221;1252;96603;-75
2024/01/05 01:46:46;;;;;;;11.00;4.60;;;;;;;1.46;75.61;98086.87;105230;1255;107736;-74
2024/01/05 01:49:14;;;;;;;10.10;4.50;;;;;;;1.45;76.00;98087.60;105377;1255;96697;-75
2024/01/05 01:51:43;;;;;;;9.90;3.90;;;;;;;1.45;75.49;98090.25;105398;1255;96543;-75
2024/01/05 01:54:10;;;;;;;10.50;4.60;;;;;;;1.44;75.69;98093.04;105408;1253;109369;-75
2024/01/05 01:56:39;;;;;;;9.00;4.80;;;;;;;1.46;75.82;98099.63;105065;1256;96620;-77
2024/01/05 01:59:08;;;;;;;9.00;4.70;;;;;;;1.45;75.87;98101.58;105444;1252;108090;-74
2024/01/05 02:01:36;;;;;;;7.20;4.10;;;;;;;1.45;75.91;98111.55;105368;1270;97921;-75
2024/01/05 02:04:04;;;;;;;11.70;4.60;;;;;;;1.45;75.74;98114.54;105103;1256;96601;-75
2024/01/05 02:06:33;;;;;;;8.80;5.30;;;;;;;1.45;75.67;98115.38;105325;1255;109100;-75
2024/01/05 02:09:00;;;;;;;13.10;4.60;;;;;;;1.46;75.73;98123.19;105354;1255;96721;-74
2024/01/05 02:11:28;;;;;;;10.70;5.20;;;;;;;1.47;75.84;98129.79;105378;1253;106889;-76
2024/01/05 02:13:56;;;;;;;12.80;5.10;;;;;;;1.45;75.65;98131.67;105226;1258;96621;-75
2024/01/05 02:16:24;;;;;;;9.60;4.70;;;;;;;1.41;75.99;98125.73;105076;1255;97528;-74
2024/01/05 02:18:52;;;;;;;9.50;4.50;;;;;;;1.39;75.60;98141.55;105444;1256;109930;-72
2024/01/05 02:21:29;;;;;;;11.40;4.50;;;;;;;1.36;75.70;98135.95;105362;1256;96620;-74
2024/01/05 02:23:57;;;;;;;9.40;4.40;;;;;;;1.33;75.53;98146.24;105236;1256;107646;-74
2024/01/05 02:26:25;;;;;;;9.20;4.50;;;;;;;1.31;75.53;98146.52;105436;1253;96625;-73
2024/01/05 02:28:53;;;;;;;8.90;4.30;;;;;;;1.26;75.46;98148.64;105395;1256;97620;-74
2024/01/05 02:31:21;;;;;;;11.90;5.00;;;;;;;1.24;75.76;98153.81;105363;1255;109485;-74
2024/01/05 02:33:49;;;;;;;9.90;4.50;;;;;;;1.23;75.55;98156.88;105323;1253;96597;-73
2024/01/05 02:36:17;;;;;;;11.00;4.70;;;;;;;1.21;75.57;98164.65;105273;1257;107059;-74
2024/01/05 02:38:45;;;;;;;10.60;4.30;;;;;;;1.19;75.41;98163.86;105394;1256;96760;-73
2024/01/05 02:41:13;;;;;;;13.40;5.40;;;;;;;1.16;75.46;98166.83;105149;1258;97542;-76
2024/01/05 02:43:41;;;;;;;11.00;4.60;;;;;;;1.11;75.42;98167.74;105420;1253;109781;-75
2024/01/05 02:46:09;;;;;;;8.70;4.10;;;;;;;1.06;75.25;98173.20;105352;1255;97923;-74
2024/01/05 02:48:37;;;;;;;13.50;4.70;;;;;;;1.02;75.33;98166.20;105321;1253;107619;-73
2024/01/05 02:51:05;;;;;;;10.20;4.80;;;;;;;1.00;75.13;98176.63;105306;1255;96730;-74
2024/01/05 02:53:33;;;;;;;10.00;4.50;;;;;;;0.98;75.11;98183.02;105356;1256;97096;-72
2024/01/05 02:56:00;;;;;;;12.30;5.10;;;;;;;0.95;75.06;98189.27;105458;1255;110000;-74
2024/01/05 02:58:28;;;;;;;9.30;4.60;;;;;;;0.92;75.15;98192.55;105175;1258;96526;-74
2024/01/05 03:00:56;;;;;;;8.60;4.30;;;;;;;0.89;75.01;98194.77;105429;1255;107664;-73
2024/01/05 03:03:24;;;;;;;8.60;4.20;;;;;;;0.87;74.99;98191.38;105375;1256;97414;-73
2024/01/05 03:05:52;;;;;;;9.10;4.40;;;;;;;0.85;74.77;98200.04;105408;1255;97829;-73
2024/01/05 03:08:20;;;;;;;9.70;4.40;;;;;;;0.83;74.91;98197.52;105358;1259;107733;-74
2024/01/05 03:10:48;;;;;;;12.70;4.30;;;;;;;0.83;74.93;98203.95;105372;1255;96526;-74
2024/01/05 03:13:16;;;;;;;12.40;4.80;;;;;;;0.82;74.75;98202.09;105438;1267;107147;-75
2024/01/05 03:15:43;;;;;;;10.00;4.50;;;;;;;0.82;74.82;98203.33;105397;1255;96601;-74
2024/01/05 03:18:11;;;;;;;9.00;4.70;;;;;;;0.80;74.88;98210.90;105476;1255;96588;-74
2024/01/05 03:20:40;;;;;;;10.60;4.50;;;;;;;0.78;74.82;98210.84;105366;1253;109892;-73
2024/01/05 03:23:08;;;;;;;10.90;4.60;;;;;;;0.76;74.90;98213.20;105094;1259;96529;-75
2024/01/05 03:25:36;;;;;;;8.90;4.30;;;;;;;0.77;74.91;98218.73;105122;1259;107558;-73
2024/01/05 03:28:04;;;;;;;9.80;4.20;;;;;;;0.77;74.64;98214.73;105452;1254;96700;-75
2024/01/05 03:30:32;;;;;;;10.20;4.50;;;;;;;0.76;74.71;98218.80;105150;1256;96601;-75
2024/01/05 03:32:59;;;;;;;10.10;4.60;;;;;;;0.76;74.89;98220.17;105363;1255;109879;-75
2024/01/05 03:35:27;;;;;;;9.50;4.70;;;;;;;0.74;74.67;98227.05;105200;1256;96523;-75
2024/01/05 03:37:56;;;;;;;11.10;5.40;;;;;;;0.73;74.77;98226.77;105102;1260;107699;-73
2024/01/05 03:40:24;;;;;;;9.90;4.80;;;;;;;0.74;74.75;98221.64;105404;1256;96616;-76
2024/01/05 03:42:52;;;;;;;10.00;4.60;;;;;;;0.74;74.45;98227.23;105369;1253;96583;-74
2024/01/05 03:45:19;;;;;;;11.90;4.40;;;;;;;0.73;74.70;98225.00;105150;1255;109427;-74
2024/01/05 03:47:47;;;;;;;10.90;4.80;;;;;;;0.71;74.49;98222.47;105385;1256;96540;-73
2024/01/05 03:50:15;;;;;;;11.00;4.50;;;;;;;0.71;74.71;98227.56;105422;1256;108316;-73
2024/01/05 03:52:43;;;;;;;11.70;4.90;;;;;;;0.71;74.45;98225.44;105312;1254;96623;-74
2024/01/05 03:55:11;;;;;;;12.60;5.30;;;;;;;0.70;74.44;98227.42;105189;1256;96603;-73
2024/01/05 03:57:39;;;;;;;9.70;4.70;;;;;;;0.70;74.58;98234.41;105317;1255;109479;-73
2024/01/05 04:00:07;;;;;;;12.00;4.60;;;;;;;0.70;74.48;98232.27;105428;1255;96761;-74
2024/01/05 04:02:35;;;;;;;9.90;4.60;;;;;;;0.72;74.73;98235.34;105589;1254;107694;-73
2024/01/05 04:05:04;;;;;;;14.00;6.10;;;;;;;0.72;74.40;98236.05;105293;1252;98022;-73
2024/01/05 04:07:32;;;;;;;14.70;6.10;;;;;;;0.70;74.30;98238.05;105153;1257;96543;-73
2024/01/05 04:10:00;;;;;;;13.00;6.00;;;;;;;0.70;74.57;98248.02;105441;1256;109981;-74
2024/01/05 04:12:27;;;;;;;11.30;5.10;;;;;;;0.69;74.53;98254.36;105349;1267;96600;-74
2024/01/05 04:14:55;;;;;;;9.40;4.80;;;;;;;0.68;74.29;98258.05;105366;1264;106903;-76
2024/01/05 04:17:23;;;;;;;14.60;5.90;;;;;;;0.68;74.36;98263.63;105314;1253;96626;-74
2024/01/05 04:19:51;;;;;;;11.20;5.20;;;;;;;0.68;74.28;98268.70;105633;1265;96598;-74
2024/01/05 04:22:19;;;;;;;10.20;4.50;;;;;;;0.69;74.43;98271.79;105255;1256;109916;-72
2024/01/05 04:24:46;;;;;;;17.60;6.40;;;;;;;0.71;74.20;98279.72;105389;1255;96600;-73
2024/01/05 04:27:14;;;;;;;10.40;4.50;;;;;;;0.72;74.21;98286.13;105483;1254;107606;-74
2024/01/05 04:29:42;;;;;;;12.00;4.50;;;;;;;0.72;74.45;98290.70;105461;1256;96626;-74
2024/01/05 04:32:10;;;;;;;11.30;5.00;;;;;;;0.73;74.27;98293.79;105123;1256;96730;-74
2024/01/05 04:34:38;;;;;;;18.30;5.70;;;;;;;0.76;74.50;98292.77;105407;1256;109411;-75
2024/01/05 04:37:06;;;;;;;17.10;5.70;;;;;;;0.75;74.21;98296.30;105285;1253;96592;-74
2024/01/05 04:39:34;;;;;;;11.70;4.70;;;;;;;0.76;74.23;98301.86;105294;1254;107702;-73
2024/01/05 04:42:03;;;;;;;14.20;5.80;;;;;;;0.76;74.22;98309.86;105029;1261;96613;-74
2024/01/05 04:44:30;;;;;;;16.20;6.90;;;;;;;0.79;74.51;98314.13;105234;1253;96554;-75
2024/01/05 04:46:58;;;;;;;16.70;7.00;;;;;;;0.82;74.23;98315.56;105202;1268;109770;-75
2024/01/05 04:49:26;;;;;;;18.20;7.70;;;;;;;0.84;74.37;98310.38;105400;1258;96600;-73
2024/01/05 04:51:54;;;;;;;13.70;6.50;;;;;;;0.86;74.35;98308.71;105744;1257;105574;-73
2024/01/05 04:54:22;;;;;;;12.60;6.20;;;;;;;0.90;74.30;98312.04;105365;1256;96526;-75
2024/01/05 04:56:50;;;;;;;10.70;4.90;;;;;;;0.93;74.43;98315.07;105355;1259;97417;-73
2024/01/05 04:59:20;;;;;;;11.40;4.90;;;;;;;0.93;74.27;98310.88;105672;1253;110238;-73
2024/01/05 05:01:48;;;;;;;10.40;4.70;;;;;;;0.92;74.59;98317.73;105869;1255;97820;-73
2024/01/05 05:04:17;;;;;;;13.00;5.60;;;;;;;0.91;74.23;98313.05;105392;1255;107100;-74
2024/01/05 05:06:46;;;;;;;10.40;4.60;;;;;;;0.89;74.32;98309.80;105348;1258;96664;-74
2024/01/05 05:09:13;;;;;;;12.10;4.80;;;;;;;0.88;74.43;98311.27;105120;1257;96685;-74
2024/01/05 05:11:41;;;;;;;14.80;5.90;;;;;;;0.86;74.36;98305.42;105407;1256;109886;-74
2024/01/05 05:14:09;;;;;;;22.90;7.70;;;;;;;0.84;74.40;98300.94;105062;1266;96517;-74
2024/01/05 05:16:37;;;;;;;16.20;5.50;;;;;;;0.85;74.25;98299.48;105381;1256;107686;-74
2024/01/05 05:19:05;;;;;;;18.20;6.10;;;;;;;0.85;74.40;98310.84;105392;1256;96753;-76
2024/01/05 05:21:33;;;;;;;19.60;7.50;;;;;;;0.84;74.18;98319.28;105133;1254;96726;-75
2024/01/05 05:24:01;;;;;;;17.90;6.90;;;;;;;0.82;74.15;98317.45;105529;1256;109526;-74
2024/01/05 05:26:29;;;;;;;15.50;5.80;;;;;;;0.86;74.07;98320.43;105116;1264;97507;-75
2024/01/05 05:28:57;;;;;;;17.30;6.00;;;;;;;0.85;74.12;98323.77;105376;1267;107739;-75
2024/01/05 05:31:24;;;;;;;16.70;7.80;;;;;;;0.85;74.18;98332.14;105458;1255;96626;-74
2024/01/05 05:33:52;;;;;;;19.00;7.60;;;;;;;0.86;74.24;98339.98;105158;1265;96869;-74
2024/01/05 05:36:20;;;;;;;17.80;7.00;;;;;;;0.90;74.21;98348.69;105376;1255;110224;-74
2024/01/05 05:38:48;;;;;;;15.40;7.10;;;;;;;0.93;74.29;98351.18;105470;1255;96632;-75
2024/01/05 05:41:16;;;;;;;16.10;6.30;;;;;;;0.94;74.28;98347.98;105261;1268;107431;-75
2024/01/05 05:43:46;;;;;;;15.20;6.40;;;;;;;0.95;74.39;98351.30;105059;1257;97455;-74
2024/01/05 05:46:13;;;;;;;13.00;4.70;;;;;;;0.96;74.28;98355.59;105474;1255;97575;-75
2024/01/05 05:48:41;;;;;;;12.10;5.70;;;;;;;0.97;74.21;98362.52;105416;1255;109914;-74
2024/01/05 05:51:11;;;;;;;12.40;5.10;;;;;;;0.99;74.26;98367.85;105426;1256;96587;-74
2024/01/05 05:53:39;;;;;;;12.40;5.30;;;;;;;1.00;74.15;98369.02;105127;1254;108225;-74
2024/01/05 05:56:07;;;;;;;12.10;5.30;;;;;;;1.01;74.21;98365.86;105073;1256;97083;-74
2024/01/05 05:58:34;;;;;;;17.20;7.00;;;;;;;0.96;74.16;98369.38;105428;1259;96955;-74
2024/01/05 06:01:02;;;;;;;17.10;6.10;;;;;;;0.93;74.20;98372.67;105257;1259;110111;-74
2024/01/05 06:03:30;;;;;;;21.10;8.10;;;;;;;0.91;74.14;98374.33;105526;1257;96517;-74
2024/01/05 06:05:58;;;;;;;29.20;11.70;;;;;;;0.91;74.18;98375.04;105372;1258;107706;-74
2024/01/05 06:08:26;;;;;;;28.80;10.40;;;;;;;0.93;74.21;98383.86;105356;1255;96607;-74
2024/01/05 06:10:54;;;;;;;24.80;9.50;;;;;;;0.92;74.19;98388.58;105377;1257;96618;-74
2024/01/05 06:13:22;;;;;;;28.40;10.20;;;;;;;0.90;74.15;98392.70;105374;1257;109861;-75
2024/01/05 06:15:49;;;;;;;28.20;11.00;;;;;;;0.92;74.09;98397.52;105336;1258;96593;-73
2024/01/05 06:18:17;;;;;;;22.50;7.50;;;;;;;0.89;73.96;98402.16;105267;1262;108780;-74
2024/01/05 06:20:45;;;;;;;27.70;10.30;;;;;;;0.87;73.93;98412.02;105418;1258;96613;-75
2024/01/05 06:23:13;;;;;;;20.40;7.20;;;;;;;0.87;74.22;98413.42;105430;1257;96591;-74
2024/01/05 06:25:43;;;;;;;20.20;7.20;;;;;;;0.90;74.03;98414.33;105373;1260;109989;-75
2024/01/05 06:28:11;;;;;;;21.20;7.20;;;;;;;0.92;74.06;98411.29;105355;1257;96603;-75
2024/01/05 06:30:39;;;;;;;22.50;8.10;;;;;;;0.93;74.12;98420.33;105076;1256;106855;-85
2024/01/05 06:33:07;;;;;;;20.10;7.80;;;;;;;0.96;74.26;98420.90;105592;1257;96772;-82
2024/01/05 06:35:35;;;;;;;18.30;6.60;;;;;;;0.95;73.95;98426.88;105556;1266;96657;-84
2024/01/05 06:38:03;;;;;;;15.60;6.30;;;;;;;0.96;74.18;98432.59;105569;1256;109157;-77
2024/01/05 06:40:31;;;;;;;14.70;5.40;;;;;;;0.99;74.06;98437.00;105691;1266;96558;-74
2024/01/05 06:42:59;;;;;;;12.70;5.20;;;;;;;1.00;73.95;98437.81;105567;1266;107093;-75
2024/01/05 06:45:28;;;;;;;11.20;4.90;;;;;;;1.02;74.00;98436.36;105586;1266;96633;-72
2024/01/05 06:47:56;;;;;;;13.00;5.10;;;;;;;1.01;74.00;98438.64;105569;1256;96592;-72
2024/01/05 06:50:24;;;;;;;10.00;4.90;;;;;;;1.01;73.89;98441.24;105354;1258;109760;-72
2024/01/05 06:52:52;;;;;;;11.40;5.00;;;;;;;1.03;73.98;98446.05;105430;1257;96611;-72
2024/01/05 06:55:20;;;;;;;15.90;5.80;;;;;;;1.03;73.94;98449.70;105463;1259;106456;-72
2024/01/05 06:57:48;;;;;;;12.20;5.00;;;;;;;1.03;74.01;98453.57;105341;1258;96653;-73
2024/01/05 07:00:16;;;;;;;12.10;4.80;;;;;;;1.06;74.06;98456.42;105164;1266;97950;-72
2024/01/05 07:02:44;;;;;;;15.20;5.40;;;;;;;1.08;73.94;98464.70;105669;1255;108566;-73
2024/01/05 07:05:12;;;;;;;15.70;6.30;;;;;;;1.10;74.09;98466.41;105295;1260;97268;-72
2024/01/05 07:07:42;;;;;;;13.60;5.90;;;;;;;1.12;73.79;98470.66;105108;1266;107512;-72
2024/01/05 07:10:10;;;;;;;15.30;6.10;;;;;;;1.12;74.17;98468.39;105466;1258;98034;-72
2024/01/05 07:12:38;;;;;;;13.70;5.10;;;;;;;1.13;73.89;98464.00;105121;1258;96606;-73
2024/01/05 07:15:07;;;;;;;11.60;5.30;;;;;;;1.14;74.06;98463.08;105368;1256;110677;-73
2024/01/05 07:17:34;;;;;;;23.00;9.80;;;;;;;1.14;74.06;98458.16;105122;1253;96637;-73
2024/01/05 07:20:03;;;;;;;23.90;11.30;;;;;;;1.15;74.05;98461.44;105305;1256;107523;-72
2024/01/05 07:22:31;;;;;;;16.70;6.30;;;;;;;1.15;73.99;98459.87;105223;1266;96782;-74
2024/01/05 07:24:59;;;;;;;18.20;7.60;;;;;;;1.15;73.99;98461.80;105383;1256;96517;-71
2024/01/05 07:27:27;;;;;;;17.30;7.10;;;;;;;1.13;74.03;98462.07;105089;1265;109966;-73
2024/01/05 07:29:55;;;;;;;21.30;9.40;;;;;;;1.12;74.08;98465.08;105164;1256;96619;-71
2024/01/05 07:32:23;;;;;;;28.00;13.00;;;;;;;1.10;73.93;98461.50;105346;1266;107577;-73
2024/01/05 07:34:51;;;;;;;71.30;41.50;;;;;;;1.07;73.71;98457.09;105120;1258;97527;-76
2024/01/05 07:37:19;;;;;;;53.40;28.60;;;;;;;1.06;73.93;98446.27;105422;1257;96524;-77
2024/01/05 07:39:47;;;;;;;21.00;9.40;;;;;;;1.08;74.07;98446.20;105209;1256;110523;-78
2024/01/05 07:42:15;;;;;;;25.50;13.50;;;;;;;1.07;73.98;98442.40;105212;1251;97856;-78
2024/01/05 07:44:43;;;;;;;28.70;17.20;;;;;;;1.07;73.81;98443.45;105192;1264;107274;-75
2024/01/05 07:47:11;;;;;;;27.80;15.10;;;;;;;1.07;73.81;98445.02;105293;1264;96745;-73
2024/01/05 07:49:40;;;;;;;25.90;14.90;;;;;;;1.08;73.87;98442.71;105577;1260;97634;-73
2024/01/05 07:52:08;;;;;;;25.20;14.50;;;;;;;1.08;73.97;98441.16;105680;1255;109875;-74
2024/01/05 07:54:39;;;;;;;23.60;12.30;;;;;;;1.12;73.85;98445.50;105538;1254;96401;-73
2024/01/05 07:57:08;;;;;;;26.50;12.20;;;;;;;1.17;73.72;98438.14;105549;1254;107703;-76
2024/01/05 07:59:36;;;;;;;23.70;11.00;;;;;;;1.22;73.96;98437.23;105393;1258;96627;-80
2024/01/05 08:02:04;;;;;;;18.90;8.90;;;;;;;1.27;74.11;98434.54;105638;1257;97824;-78
2024/01/05 08:04:31;;;;;;;17.90;7.60;;;;;;;1.33;73.79;98434.81;105321;1257;108958;-75
2024/01/05 08:06:59;;;;;;;20.90;8.60;;;;;;;1.34;73.90;98439.11;105260;1254;97425;-74
2024/01/05 08:09:27;;;;;;;20.60;8.80;;;;;;;1.38;73.80;98448.39;105142;1256;106183;-76
2024/01/05 08:11:56;;;;;;;20.10;8.60;;;;;;;1.43;73.81;98453.56;105078;1257;96773;-75
2024/01/05 08:14:24;;;;;;;22.70;8.80;;;;;;;1.49;73.84;98456.79;105156;1258;97291;-75
2024/01/05 08:16:51;;;;;;;23.30;9.40;;;;;;;1.56;73.80;98461.39;105362;1256;110343;-75
2024/01/05 08:19:20;;;;;;;21.60;10.10;;;;;;;1.60;73.95;98469.08;104737;1257;96606;-74
2024/01/05 08:21:48;;;;;;;23.90;10.30;;;;;;;1.63;73.73;98466.84;105511;1266;107664;-73
2024/01/05 08:24:17;;;;;;;24.50;10.20;;;;;;;1.67;74.16;98467.36;105331;1254;96718;-75
2024/01/05 08:26:45;;;;;;;24.50;9.90;;;;;;;1.71;73.64;98465.44;105492;1256;96572;-73
2024/01/05 08:29:12;;;;;;;25.70;11.90;;;;;;;1.74;73.89;98468.77;105378;1256;109883;-74
2024/01/05 08:31:40;;;;;;;21.40;8.50;;;;;;;1.78;73.99;98471.92;105406;1255;96601;-79
2024/01/05 08:34:08;;;;;;;21.90;8.90;;;;;;;1.80;74.09;98473.05;105222;1258;107705;-77
2024/01/05 08:36:36;;;;;;;20.90;9.50;;;;;;;1.83;74.02;98478.31;105557;1270;97827;-78
2024/01/05 08:39:05;;;;;;;26.90;14.30;;;;;;;1.87;74.04;98488.10;105493;1256;96520;-82
2024/01/05 08:41:33;;;;;;;22.60;11.40;;;;;;;1.88;73.89;98491.52;105374;1256;109482;-78
2024/01/05 08:44:01;;;;;;;22.00;10.20;;;;;;;1.90;73.83;98496.00;105234;1254;97560;-76
2024/01/05 08:46:32;;;;;;;21.00;10.40;;;;;;;1.93;73.84;98501.46;105487;1254;106878;-75
2024/01/05 08:49:00;;;;;;;22.30;10.80;;;;;;;1.94;74.00;98501.59;105457;1269;96633;-77
2024/01/05 08:51:28;;;;;;;23.70;10.80;;;;;;;1.96;74.10;98507.31;105488;1255;97548;-77
2024/01/05 08:53:58;;;;;;;23.00;10.90;;;;;;;1.99;74.04;98508.94;105160;1259;109872;-80
2024/01/05 08:56:26;;;;;;;23.10;11.80;;;;;;;1.99;74.03;98508.53;105264;1271;96657;-78
2024/01/05 08:58:53;;;;;;;27.10;13.80;;;;;;;2.00;73.89;98512.00;105138;1257;107907;-78
2024/01/05 09:01:21;;;;;;;27.40;13.20;;;;;;;2.02;74.24;98518.05;105512;1257;97817;-79
2024/01/05 09:03:50;;;;;;;25.00;10.90;;;;;;;2.00;74.21;98513.57;105439;1254;96617;-71
2024/01/05 09:06:19;;;;;;;27.00;13.40;;;;;;;2.01;74.34;98520.35;105595;1254;109896;-73
2024/01/05 09:08:47;;;;;;;45.50;23.80;;;;;;;2.02;74.18;98521.35;105508;1255;96607;-74
2024/01/05 09:11:16;;;;;;;40.20;20.20;;;;;;;2.03;74.14;98519.19;105430;1254;108392;-75
2024/01/05 09:13:43;;;;;;;33.10;17.20;;;;;;;2.05;74.24;98522.09;105370;1266;96620;-74
2024/01/05 09:16:12;;;;;;;25.00;14.30;;;;;;;2.03;73.98;98521.98;105681;1257;97929;-74
2024/01/05 09:18:40;;;;;;;21.90;12.10;;;;;;;2.05;74.42;98524.35;105465;1257;109898;-75
2024/01/05 09:21:08;;;;;;;20.60;10.70;;;;;;;2.05;74.07;98531.69;105376;1257;97832;-75
2024/01/05 09:23:36;;;;;;;20.90;9.10;;;;;;;2.06;74.13;98535.48;105248;1254;107579;-76
2024/01/05 09:26:04;;;;;;;22.00;9.60;;;;;;;2.07;74.02;98535.97;105407;1257;98039;-75
2024/01/05 09:28:33;;;;;;;22.00;10.40;;;;;;;2.07;73.77;98535.45;105358;1257;96857;-75
2024/01/05 09:31:00;;;;;;;19.00;9.40;;;;;;;2.07;74.24;98537.35;105623;1254;109966;-76
2024/01/05 09:33:28;;;;;;;22.60;11.00;;;;;;;2.10;74.28;98540.41;105508;1254;96600;-72
2024/01/05 09:35:56;;;;;;;27.60;13.90;;;;;;;2.11;74.20;98541.20;105407;1254;106073;-74
2024/01/05 09:38:24;;;;;;;23.10;11.80;;;;;;;2.11;74.08;98537.94;105435;1254;96693;-75
2024/01/05 09:40:54;;;;;;;28.30;15.20;;;;;;;2.04;74.14;98538.92;105390;1257;97942;-74
2024/01/05 09:43:23;;;;;;;23.60;11.50;;;;;;;2.02;73.85;98536.39;105302;1254;109506;-73
2024/01/05 09:45:53;;;;;;;22.80;12.00;;;;;;;2.02;74.12;98531.67;105478;1267;96537;-73
2024/01/05 09:48:22;;;;;;;24.00;12.70;;;;;;;2.05;74.33;98530.81;105523;1260;107228;-73
2024/01/05 09:51:06;;;;;;;23.00;12.00;;;;;;;2.06;74.23;98536.35;105402;1256;96626;-75
2024/01/05 09:53:34;;;;;;;22.90;11.50;;;;;;;2.03;74.26;98534.41;105241;1256;96615;-74
2024/01/05 09:56:07;;;;;;;28.40;14.30;;;;;;;1.99;74.19;98534.07;105317;1254;109924;-75
2024/01/05 09:58:35;;;;;;;25.40;13.00;;;;;;;1.96;74.24;98530.38;105497;1257;96612;-74
2024/01/05 10:01:11;;;;;;;26.90;14.00;;;;;;;1.97;74.16;98522.98;105528;1258;107310;-74
2024/01/05 10:03:39;;;;;;;27.90;14.40;;;;;;;1.96;74.01;98524.79;105081;1257;97419;-74
2024/01/05 10:06:25;;;;;;;26.70;14.40;;;;;;;1.94;74.19;98522.27;104604;1258;96700;-75
2024/01/05 10:08:54;;;;;;;25.80;13.40;;;;;;;1.91;74.35;98525.15;104932;1257;108600;-75
2024/01/05 10:11:29;;;;;;;23.40;12.80;;;;;;;1.90;74.41;98528.87;105659;1257;96514;-75
2024/01/05 10:14:05;;;;;;;25.60;13.60;;;;;;;1.95;74.56;98526.59;105521;1256;107398;-74
2024/01/05 10:16:36;;;;;;;26.50;14.10;;;;;;;1.98;74.49;98522.56;105604;1254;97043;-76
2024/01/05 10:19:10;;;;;;;34.10;19.70;;;;;;;2.00;74.47;98523.34;105109;1259;96684;-75
2024/01/05 10:21:47;;;;;;;29.00;15.80;;;;;;;2.00;74.18;98518.81;105234;1257;110025;-75
2024/01/05 10:24:25;;;;;;;25.50;13.00;;;;;;;2.02;74.43;98511.73;105328;1257;97977;-76
2024/01/05 10:27:07;;;;;;;25.90;13.70;;;;;;;2.00;74.14;98502.71;105293;1257;107696;-74
2024/01/05 10:29:37;;;;;;;25.30;13.10;;;;;;;1.96;74.56;98489.13;105582;1257;97932;-76
2024/01/05 10:32:13;;;;;;;22.10;11.40;;;;;;;1.94;74.27;98477.66;105471;1254;96636;-73
2024/01/05 10:34:42;;;;;;;32.00;16.00;;;;;;;1.94;74.42;98480.82;105264;1257;109904;-74
2024/01/05 10:37:11;;;;;;;26.30;13.30;;;;;;;1.97;74.47;98481.20;105359;1254;97238;-75
2024/01/05 10:39:51;;;;;;;28.70;14.80;;;;;;;2.00;74.62;98486.43;105276;1254;108409;-74
2024/01/05 10:42:19;;;;;;;27.60;14.70;;;;;;;2.05;74.46;98486.21;105532;1257;96632;-74
2024/01/05 10:44:51;;;;;;;27.10;13.50;;;;;;;2.08;74.31;98482.56;105732;1254;96521;-75
2024/01/05 10:47:25;;;;;;;31.20;15.80;;;;;;;2.11;74.30;98483.15;105586;1254;109851;-71
2024/01/05 10:49:55;;;;;;;38.70;19.30;;;;;;;2.13;74.51;98487.41;104658;1258;96611;-75
2024/01/05 10:52:28;;;;;;;38.80;19.40;;;;;;;2.15;74.38;98488.55;105064;1257;107322;-74
2024/01/05 10:54:57;;;;;;;36.30;20.00;;;;;;;2.14;74.39;98486.52;105466;1266;96709;-74
2024/01/05 10:57:25;;;;;;;33.70;18.00;;;;;;;2.11;74.62;98485.60;105463;1256;96544;-71
2024/01/05 10:59:56;;;;;;;31.80;14.80;;;;;;;2.10;74.47;98485.84;105246;1257;108361;-72
2024/01/05 11:03:40;;;;;;;30.80;17.00;;;;;;;2.03;74.28;98483.55;101810;1297;636081;-73
2024/01/05 11:06:10;;;;;;;35.40;17.70;;;;;;;1.98;74.26;98482.89;104590;1273;94418;-74
2024/01/05 11:09:01;;;;;;;28.90;14.40;;;;;;;1.96;74.36;98475.28;104772;1269;94406;-74
2024/01/05 11:12:01;;;;;;;96.50;37.30;;;;;;;1.97;74.53;98468.25;104434;1272;106749;-75
2024/01/05 11:15:26;;;;;;;38.40;15.20;;;;;;;1.96;74.30;98465.52;104462;1274;95270;-73
2024/01/05 11:18:19;;;;;;;27.20;12.60;;;;;;;2.00;74.23;98459.37;104188;1276;148337;-74
2024/01/05 11:21:10;;;;;;;25.70;11.50;;;;;;;2.05;74.41;98454.94;104575;1264;94261;-74
2024/01/05 11:23:40;;;;;;;25.20;12.30;;;;;;;2.15;74.56;98448.48;104642;1269;94315;-73
2024/01/05 11:26:31;;;;;;;27.70;13.90;;;;;;;2.17;74.43;98447.52;104595;1267;107211;-72
2024/01/05 11:28:58;;;;;;;28.10;14.00;;;;;;;2.21;74.73;98453.80;104799;1269;95171;-74
2024/01/05 11:31:46;;;;;;;25.30;13.00;;;;;;;2.27;74.50;98455.30;104571;1269;106455;-75